Time;durP1;ratioP1;P1;durP2;ratioP2;P2;SDS_P1;SDS_P2;PMS_P1;PMS_P2;Temp;Humidity;BMP_temperature;BMP_pressure;BME280_temperature;BME280_humidity;BME280_pressure;Samples;Min_cycle;Max_cycle;Signal;HPM_P1;HPM_P2
2021/08/12 00:00:41;;;;;;;13.50;10.07;;;;;;;13.82;100.00;101951.00;4887169;29;20539;-80
2021/08/12 00:03:07;;;;;;;12.32;10.05;;;;;;;13.81;100.00;101957.22;4896748;29;20040;-80
2021/08/12 00:05:33;;;;;;;11.00;9.60;;;;;;;13.77;100.00;101947.94;4904772;29;20518;-82
2021/08/12 00:07:58;;;;;;;12.77;9.88;;;;;;;13.78;100.00;101946.94;4881401;29;20071;-81
2021/08/12 00:10:24;;;;;;;13.40;9.13;;;;;;;13.76;100.00;101946.25;4878370;29;20047;-80
2021/08/12 00:12:49;;;;;;;11.55;10.35;;;;;;;13.86;100.00;101954.16;4885344;29;20036;-79
2021/08/12 00:15:15;;;;;;;15.75;10.27;;;;;;;13.79;100.00;101940.72;4899518;29;20128;-80
2021/08/12 00:17:41;;;;;;;11.43;10.20;;;;;;;13.79;100.00;101931.97;4869670;29;20063;-78
2021/08/12 00:20:07;;;;;;;14.32;10.43;;;;;;;13.84;100.00;101945.56;4893787;29;20134;-79
2021/08/12 00:22:32;;;;;;;15.38;10.20;;;;;;;13.71;100.00;101921.28;4904967;29;20067;-79
2021/08/12 00:24:58;;;;;;;15.80;9.45;;;;;;;13.75;100.00;101934.06;4905020;29;20525;-79
2021/08/12 00:27:23;;;;;;;14.52;10.30;;;;;;;13.76;100.00;101943.63;4882573;29;20356;-78
2021/08/12 00:29:49;;;;;;;12.82;9.93;;;;;;;13.71;100.00;101926.53;4913180;29;20039;-80
2021/08/12 00:32:15;;;;;;;17.02;10.73;;;;;;;13.74;100.00;101926.28;4873607;29;20132;-82
2021/08/12 00:34:41;;;;;;;16.98;10.95;;;;;;;13.74;100.00;101932.38;4883476;29;20444;-83
2021/08/12 00:37:07;;;;;;;14.35;11.40;;;;;;;13.72;100.00;101933.50;4918336;29;20536;-80
2021/08/12 00:39:34;;;;;;;13.20;11.10;;;;;;;13.65;100.00;101930.56;4889142;29;20039;-81
2021/08/12 00:42:05;;;;;;;14.00;11.35;;;;;;;13.61;100.00;101927.38;4911177;29;20119;-80
2021/08/12 00:44:32;;;;;;;12.20;10.60;;;;;;;13.62;100.00;101942.22;4871466;29;20043;-79
2021/08/12 00:46:58;;;;;;;16.20;12.38;;;;;;;13.65;100.00;101937.66;4887431;29;20506;-78
2021/08/12 00:49:29;;;;;;;14.88;11.50;;;;;;;13.61;100.00;101934.47;4884438;29;20518;-80
2021/08/12 00:51:55;;;;;;;15.52;12.68;;;;;;;13.64;100.00;101939.47;4904640;29;20115;-77
2021/08/12 00:54:23;;;;;;;20.27;12.15;;;;;;;13.57;100.00;101919.88;4890421;29;20072;-79
2021/08/12 00:56:49;;;;;;;15.23;12.07;;;;;;;13.60;100.00;101938.91;4881049;29;20442;-79
2021/08/12 00:59:15;;;;;;;18.52;11.95;;;;;;;13.56;100.00;101934.88;4884755;29;20039;-82
2021/08/12 01:01:43;;;;;;;15.30;12.90;;;;;;;13.49;100.00;101932.94;4870779;29;20074;-80
2021/08/12 01:04:09;;;;;;;12.45;10.82;;;;;;;13.49;100.00;101940.84;4873343;29;20123;-80
2021/08/12 01:07:06;;;;;;;18.05;13.27;;;;;;;13.54;100.00;101939.47;4888992;29;20040;-80
2021/08/12 01:09:32;;;;;;;15.60;11.30;;;;;;;13.51;100.00;101937.09;4859965;29;20044;-82
2021/08/12 01:12:05;;;;;;;14.00;10.85;;;;;;;13.50;100.00;101938.03;4891717;29;20035;-79
2021/08/12 01:14:45;;;;;;;12.23;10.70;;;;;;;13.53;100.00;101940.41;4884919;29;20066;-80
2021/08/12 01:17:18;;;;;;;14.70;11.05;;;;;;;13.49;100.00;101925.84;4873137;29;20111;-79
2021/08/12 01:20:07;;;;;;;14.40;12.13;;;;;;;13.60;100.00;101936.25;4899662;29;20110;-80
2021/08/12 01:22:44;;;;;;;16.52;12.15;;;;;;;13.60;100.00;101933.63;4883684;29;20060;-79
2021/08/12 01:25:22;;;;;;;13.75;11.38;;;;;;;13.59;100.00;101931.13;4883318;29;20040;-81
2021/08/12 01:27:52;;;;;;;17.60;11.70;;;;;;;13.60;100.00;101927.53;4899238;29;20040;-81
2021/08/12 01:30:24;;;;;;;16.45;11.75;;;;;;;13.60;100.00;101936.25;4880490;29;20040;-80
2021/08/12 01:33:28;;;;;;;17.55;12.82;;;;;;;13.57;100.00;101935.72;4877311;29;20036;-80
2021/08/12 01:35:58;;;;;;;14.20;11.60;;;;;;;13.50;100.00;101932.78;4886993;29;20075;-80
2021/08/12 01:38:27;;;;;;;15.82;11.75;;;;;;;13.43;100.00;101923.78;4864025;29;20100;-81
2021/08/12 01:40:55;;;;;;;16.20;11.90;;;;;;;13.44;100.00;101936.78;4883086;29;20048;-81
2021/08/12 01:43:23;;;;;;;14.95;11.63;;;;;;;13.42;100.00;101936.09;4882116;29;20036;-80
2021/08/12 01:45:57;;;;;;;18.92;11.68;;;;;;;13.34;100.00;101927.22;4882260;29;20039;-79
2021/08/12 01:48:25;;;;;;;13.73;12.18;;;;;;;13.33;100.00;101921.09;4865687;29;20039;-78
2021/08/12 01:50:54;;;;;;;18.90;12.98;;;;;;;13.38;100.00;101937.34;4891872;29;20414;-80
2021/08/12 01:53:21;;;;;;;14.48;11.57;;;;;;;13.34;100.00;101932.47;4894191;29;20035;-78
2021/08/12 01:55:48;;;;;;;16.08;11.05;;;;;;;13.30;100.00;101931.03;4869327;29;20541;-82
2021/08/12 01:58:19;;;;;;;13.88;11.30;;;;;;;13.30;100.00;101937.19;4900838;29;20096;-79
2021/08/12 02:00:47;;;;;;;16.27;11.35;;;;;;;13.25;100.00;101932.28;4879472;29;20044;-80
2021/08/12 02:03:15;;;;;;;15.15;11.07;;;;;;;13.17;100.00;101913.69;4926915;29;20040;-79
2021/08/12 02:05:44;;;;;;;13.10;11.13;;;;;;;13.18;100.00;101923.25;4914909;29;20414;-79
2021/08/12 02:08:10;;;;;;;17.70;12.13;;;;;;;13.22;100.00;101915.91;4882373;29;20036;-81
2021/08/12 02:10:36;;;;;;;18.92;11.10;;;;;;;13.20;100.00;101909.94;4881831;29;20410;-79
2021/08/12 02:13:02;;;;;;;18.73;11.73;;;;;;;13.23;100.00;101922.84;4885767;29;20036;-81
2021/08/12 02:15:28;;;;;;;16.67;11.45;;;;;;;13.28;100.00;101909.25;4892920;29;20411;-80
2021/08/12 02:17:54;;;;;;;13.80;12.40;;;;;;;13.24;100.00;101906.06;4917182;29;20043;-78
2021/08/12 02:20:20;;;;;;;19.50;12.20;;;;;;;13.34;100.00;101920.13;4887214;29;20040;-79
2021/08/12 02:23:02;;;;;;;14.00;12.45;;;;;;;13.40;100.00;101919.59;4878198;29;20080;-80
2021/08/12 02:25:33;;;;;;;16.95;12.98;;;;;;;13.34;100.00;101914.03;4865920;29;20052;-80
2021/08/12 02:28:08;;;;;;;18.30;13.38;;;;;;;13.34;100.00;101922.78;4883301;29;20032;-78
2021/08/12 02:30:39;;;;;;;13.73;11.75;;;;;;;13.32;100.00;101922.06;4881392;29;20463;-78
2021/08/12 02:33:08;;;;;;;14.65;11.80;;;;;;;13.30;100.00;101915.22;4895400;29;20031;-78
2021/08/12 02:35:37;;;;;;;14.70;11.80;;;;;;;13.32;100.00;101918.63;4869865;29;20197;-79
2021/08/12 02:38:05;;;;;;;14.13;12.10;;;;;;;13.27;100.00;101915.50;4881632;29;20040;-78
2021/08/12 02:40:31;;;;;;;17.35;11.75;;;;;;;13.20;100.00;101913.44;4895466;29;20519;-79
2021/08/12 02:42:59;;;;;;;13.18;11.35;;;;;;;13.18;100.00;101919.78;4899778;29;20087;-77
2021/08/12 02:45:26;;;;;;;15.25;11.10;;;;;;;13.06;100.00;101924.31;4883126;29;20565;-78
2021/08/12 02:47:53;;;;;;;16.08;11.48;;;;;;;12.99;100.00;101921.38;4867427;29;20035;-79
2021/08/12 02:50:20;;;;;;;11.38;10.10;;;;;;;12.91;100.00;101918.59;4883181;29;20039;-79
2021/08/12 02:52:47;;;;;;;12.93;9.70;;;;;;;12.84;100.00;101907.75;4887637;29;20036;-78
2021/08/12 02:55:13;;;;;;;16.20;9.80;;;;;;;12.81;100.00;101907.19;4882322;29;20082;-80
2021/08/12 02:57:40;;;;;;;15.10;9.82;;;;;;;12.75;100.00;101905.94;4915497;29;20067;-78
2021/08/12 03:00:08;;;;;;;13.18;10.35;;;;;;;12.75;100.00;101911.19;4910827;29;20123;-79
2021/08/12 03:02:46;;;;;;;13.15;11.05;;;;;;;12.69;100.00;101908.25;4907190;29;20028;-79
2021/08/12 03:05:14;;;;;;;12.25;10.18;;;;;;;12.66;100.00;101904.91;4890881;29;20036;-80
2021/08/12 03:07:43;;;;;;;17.98;12.50;;;;;;;12.61;100.00;101895.75;4875578;29;20131;-79
2021/08/12 03:10:13;;;;;;;14.13;10.85;;;;;;;12.51;100.00;101900.97;4882779;29;20395;-78
2021/08/12 03:12:41;;;;;;;17.48;11.52;;;;;;;12.53;100.00;101916.63;4898404;29;20068;-80
2021/08/12 03:15:09;;;;;;;11.73;10.63;;;;;;;12.48;100.00;101914.38;4864384;29;20047;-78
2021/08/12 03:17:35;;;;;;;12.50;10.52;;;;;;;12.51;100.00;101913.28;4867641;29;20103;-79
2021/08/12 03:20:04;;;;;;;14.13;11.75;;;;;;;12.54;100.00;101905.13;4882908;29;20028;-78
2021/08/12 03:22:32;;;;;;;11.88;10.27;;;;;;;12.50;100.00;101909.00;4906411;29;20060;-81
2021/08/12 03:24:58;;;;;;;13.70;10.90;;;;;;;12.44;100.00;101907.72;4885831;29;20127;-79
2021/08/12 03:27:24;;;;;;;20.73;12.57;;;;;;;12.46;100.00;101919.75;4878534;29;20111;-79
2021/08/12 03:29:51;;;;;;;11.88;10.20;;;;;;;12.39;100.00;101917.78;4881278;29;20566;-80
2021/08/12 03:32:18;;;;;;;11.93;10.60;;;;;;;12.40;100.00;101922.09;4881767;29;20153;-80
2021/08/12 03:34:45;;;;;;;13.10;10.40;;;;;;;12.38;100.00;101924.03;4895496;29;20051;-81
2021/08/12 03:37:11;;;;;;;11.57;10.23;;;;;;;12.31;100.00;101926.31;4909875;29;20036;-81
2021/08/12 03:39:36;;;;;;;17.95;11.20;;;;;;;12.33;100.00;101923.56;4865795;29;20103;-78
2021/08/12 03:42:02;;;;;;;13.50;11.38;;;;;;;12.31;100.00;101928.13;4913789;29;20031;-79
2021/08/12 03:44:28;;;;;;;13.00;11.60;;;;;;;12.32;100.00;101919.25;4896693;29;20123;-80
2021/08/12 03:46:54;;;;;;;15.90;11.43;;;;;;;12.35;100.00;101937.44;4895753;29;20767;-79
2021/08/12 03:49:22;;;;;;;14.23;11.40;;;;;;;12.43;100.00;101937.59;4902902;29;20090;-80
2021/08/12 03:51:48;;;;;;;13.18;11.80;;;;;;;12.42;100.00;101942.03;4873683;29;20388;-79
2021/08/12 03:54:13;;;;;;;12.77;11.30;;;;;;;12.45;100.00;101943.56;4890558;29;20047;-79
2021/08/12 03:56:39;;;;;;;14.05;10.93;;;;;;;12.40;100.00;101938.72;4865674;29;20044;-78
2021/08/12 03:59:06;;;;;;;13.32;10.80;;;;;;;12.46;100.00;101932.09;4880485;29;20262;-77
2021/08/12 04:01:32;;;;;;;13.38;11.05;;;;;;;12.50;100.00;101938.75;4882811;29;20145;-79
2021/08/12 04:03:59;;;;;;;14.40;11.32;;;;;;;12.54;100.00;101936.72;4881570;29;20123;-78
2021/08/12 04:06:25;;;;;;;11.93;9.63;;;;;;;12.59;100.00;101939.78;4893728;29;20546;-78
2021/08/12 04:08:51;;;;;;;12.57;10.73;;;;;;;12.57;100.00;101937.28;4891553;29;20051;-79
2021/08/12 04:11:18;;;;;;;12.60;10.43;;;;;;;12.65;100.00;101939.25;4898905;29;20036;-78
2021/08/12 04:13:44;;;;;;;13.02;10.63;;;;;;;12.64;100.00;101929.72;4868974;29;20036;-81
2021/08/12 04:16:10;;;;;;;14.55;11.30;;;;;;;12.66;100.00;101933.88;4906911;29;20046;-78
2021/08/12 04:18:36;;;;;;;14.80;10.90;;;;;;;12.66;100.00;101938.31;4894419;29;20119;-79
2021/08/12 04:21:02;;;;;;;14.80;11.20;;;;;;;12.65;100.00;101939.25;4901461;29;20573;-79
2021/08/12 04:23:28;;;;;;;11.40;10.30;;;;;;;12.67;100.00;101929.44;4885569;29;20040;-83
2021/08/12 04:25:54;;;;;;;12.45;10.55;;;;;;;12.79;100.00;101938.94;4873101;29;20031;-79
2021/08/12 04:28:21;;;;;;;20.05;11.27;;;;;;;12.80;100.00;101932.69;4903200;29;20067;-79
2021/08/12 04:30:49;;;;;;;12.30;10.70;;;;;;;12.72;100.00;101936.94;4899880;29;20035;-80
2021/08/12 04:33:16;;;;;;;12.73;10.85;;;;;;;12.73;100.00;101936.78;4896329;29;20049;-79
2021/08/12 04:35:42;;;;;;;12.45;10.40;;;;;;;12.71;100.00;101936.09;4885861;29;20036;-80
2021/08/12 04:38:09;;;;;;;12.48;11.13;;;;;;;12.59;100.00;101911.66;4885952;29;20050;-80
2021/08/12 04:40:34;;;;;;;13.90;11.23;;;;;;;12.77;100.00;101932.97;4909439;29;20039;-79
2021/08/12 04:43:00;;;;;;;17.27;12.52;;;;;;;12.80;100.00;101927.41;4895134;29;20027;-80
2021/08/12 04:45:27;;;;;;;13.38;11.20;;;;;;;12.83;100.00;101919.25;4869935;29;20131;-80
2021/08/12 04:48:03;;;;;;;15.50;12.30;;;;;;;12.93;100.00;101929.00;4917959;29;20064;-79
2021/08/12 04:50:34;;;;;;;17.40;11.75;;;;;;;12.96;100.00;101929.56;4885252;29;20068;-78
2021/08/12 04:53:00;;;;;;;15.10;11.57;;;;;;;13.07;100.00;101933.88;4885425;29;20036;-80
2021/08/12 04:55:27;;;;;;;16.83;13.70;;;;;;;13.13;100.00;101929.88;4900866;29;20032;-80
2021/08/12 04:57:53;;;;;;;15.77;11.80;;;;;;;13.18;100.00;101923.25;4882424;29;20092;-80
2021/08/12 05:00:18;;;;;;;14.27;12.07;;;;;;;13.31;100.00;101932.75;4867410;29;20399;-80
2021/08/12 05:02:44;;;;;;;15.93;12.07;;;;;;;13.37;100.00;101925.16;4874008;29;20064;-80
2021/08/12 05:05:11;;;;;;;17.60;11.50;;;;;;;13.44;100.00;101936.78;4900366;29;20051;-80
2021/08/12 05:07:39;;;;;;;12.18;10.40;;;;;;;13.54;100.00;101941.25;4885458;29;20032;-81
2021/08/12 05:10:06;;;;;;;13.07;11.52;;;;;;;13.57;100.00;101947.06;4888083;29;20083;-79
2021/08/12 05:12:31;;;;;;;15.57;11.43;;;;;;;13.60;100.00;101936.25;4914114;29;20096;-80
2021/08/12 05:15:01;;;;;;;13.20;11.15;;;;;;;13.71;100.00;101947.63;4884934;29;20044;-83
2021/08/12 05:17:29;;;;;;;11.68;10.50;;;;;;;13.76;100.00;101942.78;4884513;29;20051;-79
2021/08/12 05:19:56;;;;;;;12.77;10.30;;;;;;;13.84;100.00;101942.94;4899559;29;20036;-83
2021/08/12 05:22:23;;;;;;;14.57;10.15;;;;;;;13.87;100.00;101941.84;4869101;29;20042;-81
2021/08/12 05:24:50;;;;;;;14.85;9.85;;;;;;;13.90;100.00;101944.19;4868342;29;20040;-81
2021/08/12 05:27:16;;;;;;;11.90;9.70;;;;;;;13.98;100.00;101945.16;4887158;29;20032;-82
2021/08/12 05:29:42;;;;;;;11.98;10.00;;;;;;;14.08;100.00;101949.59;4900470;29;20829;-82
2021/08/12 05:32:08;;;;;;;10.80;9.18;;;;;;;14.01;100.00;101926.44;4899469;29;20122;-80
2021/08/12 05:34:34;;;;;;;13.23;9.23;;;;;;;14.19;100.00;101933.63;4886430;29;20036;-81
2021/08/12 05:37:00;;;;;;;13.50;10.50;;;;;;;14.33;100.00;101934.97;4900995;29;20526;-81
2021/08/12 05:39:26;;;;;;;11.70;9.68;;;;;;;14.38;100.00;101930.09;4883860;29;20031;-81
2021/08/12 05:41:52;;;;;;;11.25;9.57;;;;;;;14.45;100.00;101935.63;4869876;29;20103;-81
2021/08/12 05:44:17;;;;;;;9.80;8.38;;;;;;;14.37;100.00;101928.44;4871213;29;20447;-82
2021/08/12 05:46:46;;;;;;;9.73;8.73;;;;;;;14.43;100.00;101927.03;4901060;29;20040;-81
2021/08/12 05:49:12;;;;;;;9.93;8.80;;;;;;;14.49;100.00;101934.41;4868953;29;20036;-81
2021/08/12 05:51:39;;;;;;;11.32;8.35;;;;;;;14.52;100.00;101936.72;4885264;29;20044;-79
2021/08/12 05:54:06;;;;;;;10.48;8.68;;;;;;;14.41;100.00;101935.94;4869411;29;20537;-79
2021/08/12 05:56:32;;;;;;;11.48;8.60;;;;;;;14.42;100.00;101939.41;4869436;29;20036;-82
2021/08/12 05:58:58;;;;;;;10.93;9.07;;;;;;;14.41;100.00;101937.75;4869078;29;20044;-82
2021/08/12 06:01:23;;;;;;;12.82;9.80;;;;;;;14.44;100.00;101939.25;4891095;29;20023;-81
2021/08/12 06:03:48;;;;;;;13.32;8.95;;;;;;;14.45;100.00;101925.06;4911898;29;20040;-79
2021/08/12 06:06:15;;;;;;;9.70;8.70;;;;;;;14.61;100.00;101938.53;4903827;29;20566;-85
2021/08/12 06:08:41;;;;;;;8.95;8.05;;;;;;;14.79;100.00;101936.00;4888605;29;20485;-80
2021/08/12 06:11:07;;;;;;;10.43;8.73;;;;;;;14.91;100.00;101932.19;4902061;29;20039;-79
2021/08/12 06:13:33;;;;;;;12.57;9.05;;;;;;;15.06;100.00;101936.97;4895126;29;20410;-83
2021/08/12 06:16:01;;;;;;;13.85;8.75;;;;;;;15.15;99.55;101931.66;4885487;29;20055;-82
2021/08/12 06:18:28;;;;;;;10.43;8.60;;;;;;;15.37;97.81;101932.22;4869551;29;20044;-81
2021/08/12 06:20:55;;;;;;;10.93;8.90;;;;;;;15.42;98.47;101929.94;4869266;29;20088;-82
2021/08/12 06:23:21;;;;;;;10.75;8.55;;;;;;;15.44;98.33;101920.06;4893367;29;20544;-84
2021/08/12 06:25:47;;;;;;;13.00;8.90;;;;;;;15.55;98.26;101934.88;4905787;29;20046;-80
2021/08/12 06:28:12;;;;;;;9.82;8.27;;;;;;;15.73;96.45;101935.75;4883665;29;20044;-82
2021/08/12 06:30:38;;;;;;;11.02;8.48;;;;;;;15.89;96.58;101948.28;4900260;29;20036;-80
2021/08/12 06:33:06;;;;;;;9.02;7.75;;;;;;;16.00;94.50;101947.22;4879023;29;20046;-81
2021/08/12 06:35:32;;;;;;;9.32;7.57;;;;;;;16.12;95.14;101938.06;4883006;29;20039;-81
2021/08/12 06:37:59;;;;;;;10.82;7.43;;;;;;;16.18;92.53;101936.63;4894499;29;20044;-80
2021/08/12 06:40:24;;;;;;;9.38;6.90;;;;;;;16.20;94.44;101934.66;4886383;29;20035;-82
2021/08/12 06:42:51;;;;;;;8.82;6.75;;;;;;;16.46;92.78;101934.66;4909225;29;20043;-80
2021/08/12 06:45:19;;;;;;;9.48;7.15;;;;;;;16.60;92.90;101935.06;4905766;29;20035;-80
2021/08/12 06:47:46;;;;;;;9.70;6.90;;;;;;;16.84;91.80;101937.88;4933577;29;20039;-81
2021/08/12 06:50:14;;;;;;;8.32;6.90;;;;;;;16.77;90.48;101928.84;4935739;29;20043;-79
2021/08/12 06:52:41;;;;;;;8.18;7.20;;;;;;;16.80;90.33;101936.50;4905979;29;20048;-81
2021/08/12 06:55:07;;;;;;;9.15;6.70;;;;;;;16.98;88.53;101938.25;4887850;29;20091;-80
2021/08/12 06:57:33;;;;;;;8.90;6.55;;;;;;;17.18;87.88;101938.81;4887804;29;20129;-82
2021/08/12 06:59:58;;;;;;;6.72;6.00;;;;;;;17.44;87.40;101939.56;4884853;29;20473;-79
2021/08/12 07:02:24;;;;;;;8.20;5.55;;;;;;;17.71;85.46;101946.38;4898114;29;20032;-83
2021/08/12 07:04:51;;;;;;;7.40;5.70;;;;;;;18.03;85.23;101943.97;4868218;29;20040;-80
2021/08/12 07:07:18;;;;;;;6.30;5.70;;;;;;;18.16;83.59;101938.97;4880131;29;20040;-80
2021/08/12 07:09:44;;;;;;;8.10;5.93;;;;;;;18.16;83.17;101938.97;4891107;29;20038;-81
2021/08/12 07:12:10;;;;;;;10.20;6.13;;;;;;;18.02;83.79;101937.78;4886389;29;20491;-81
2021/08/12 07:14:37;;;;;;;9.73;6.53;;;;;;;17.86;85.02;101930.69;4886412;29;20383;-79
2021/08/12 07:17:03;;;;;;;11.10;7.07;;;;;;;17.71;83.67;101919.03;4885528;29;20055;-80
2021/08/12 07:19:29;;;;;;;11.35;7.70;;;;;;;18.01;83.16;101937.97;4901425;29;20588;-80
2021/08/12 07:21:55;;;;;;;11.98;8.43;;;;;;;18.11;84.17;101927.19;4885380;29;20036;-81
2021/08/12 07:24:21;;;;;;;19.30;10.15;;;;;;;18.33;82.75;101937.13;4898268;29;20056;-79
2021/08/12 07:26:47;;;;;;;21.42;11.10;;;;;;;18.45;81.30;101941.06;4866749;29;20036;-80
2021/08/12 07:29:14;;;;;;;16.92;10.80;;;;;;;18.44;83.23;101946.53;4886176;29;20399;-82
2021/08/12 07:31:40;;;;;;;17.98;11.10;;;;;;;18.25;83.77;101945.06;4885435;29;20470;-82
2021/08/12 07:34:07;;;;;;;15.07;9.93;;;;;;;18.12;84.04;101936.78;4872782;29;20084;-81
2021/08/12 07:36:34;;;;;;;13.68;8.90;;;;;;;18.09;85.03;101937.97;4882372;29;20048;-79
2021/08/12 07:39:01;;;;;;;15.65;9.10;;;;;;;18.11;84.63;101941.28;4882552;29;20055;-80
2021/08/12 07:41:27;;;;;;;16.63;10.15;;;;;;;18.15;84.12;101939.13;4897981;29;20036;-79
2021/08/12 07:43:53;;;;;;;14.88;10.23;;;;;;;18.29;85.84;101944.59;4886071;29;20047;-80
2021/08/12 07:46:19;;;;;;;18.55;10.10;;;;;;;18.53;83.76;101928.75;4869136;29;20091;-80
2021/08/12 07:48:45;;;;;;;12.75;9.00;;;;;;;18.79;83.24;101949.78;4894800;29;20747;-81
2021/08/12 07:51:10;;;;;;;10.85;7.40;;;;;;;18.73;82.42;101930.03;4888465;29;20055;-79
2021/08/12 07:53:36;;;;;;;9.70;7.35;;;;;;;18.77;81.42;101933.19;4889140;29;20042;-78
2021/08/12 07:56:02;;;;;;;9.15;6.75;;;;;;;18.88;81.62;101927.53;4904663;29;20122;-79
2021/08/12 07:58:28;;;;;;;6.82;5.47;;;;;;;18.94;80.28;101932.13;4914268;29;20059;-79
2021/08/12 08:00:54;;;;;;;9.20;5.68;;;;;;;19.12;82.70;101929.25;4885727;29;20443;-81
2021/08/12 08:03:19;;;;;;;8.57;5.82;;;;;;;19.27;80.33;101918.69;4893658;29;20058;-80
2021/08/12 08:05:45;;;;;;;7.50;5.13;;;;;;;19.20;78.76;101923.88;4899446;29;20044;-82
2021/08/12 08:08:10;;;;;;;8.63;5.00;;;;;;;19.24;78.01;101932.31;4923975;29;20044;-79
2021/08/12 08:10:36;;;;;;;10.00;5.18;;;;;;;19.40;81.11;101937.56;4903064;29;20043;-80
2021/08/12 08:13:02;;;;;;;6.40;4.82;;;;;;;19.38;78.38;101936.91;4891507;29;20032;-80
2021/08/12 08:15:28;;;;;;;7.80;4.07;;;;;;;19.24;78.42;101945.63;4913153;29;20042;-82
2021/08/12 08:17:54;;;;;;;6.45;4.78;;;;;;;19.05;80.06;101938.91;4889052;29;20036;-84
2021/08/12 08:20:19;;;;;;;6.65;4.93;;;;;;;18.81;80.61;101934.53;4903729;29;20046;-80
2021/08/12 08:22:46;;;;;;;6.82;4.50;;;;;;;18.79;81.83;101942.63;4902269;29;20596;-79
2021/08/12 08:25:12;;;;;;;5.90;4.30;;;;;;;19.16;82.23;101940.38;4901745;29;20092;-81
2021/08/12 08:27:38;;;;;;;6.32;4.32;;;;;;;19.72;81.46;101933.06;4886065;29;20035;-80
2021/08/12 08:30:05;;;;;;;12.02;5.18;;;;;;;20.34;81.11;101941.81;4896069;29;20501;-81
2021/08/12 08:32:32;;;;;;;4.47;4.07;;;;;;;20.69;75.87;101929.63;4884763;29;20036;-78
2021/08/12 08:34:59;;;;;;;6.05;3.95;;;;;;;21.02;73.78;101926.56;4889813;29;20044;-78
2021/08/12 08:37:25;;;;;;;6.00;4.50;;;;;;;21.11;72.28;101924.63;4917991;29;20040;-80
2021/08/12 08:39:50;;;;;;;7.32;4.30;;;;;;;21.33;72.18;101936.97;4908546;29;20514;-79
2021/08/12 08:42:17;;;;;;;4.63;4.05;;;;;;;21.61;70.06;101932.78;4898992;29;20070;-81
2021/08/12 08:44:45;;;;;;;5.40;3.78;;;;;;;21.89;69.69;101944.31;4886887;29;20068;-80
2021/08/12 08:47:14;;;;;;;4.22;3.80;;;;;;;21.99;67.31;101937.81;4880327;29;20383;-81
2021/08/12 08:49:45;;;;;;;6.35;4.30;;;;;;;22.14;68.82;101933.22;4936496;29;20110;-82
2021/08/12 08:52:13;;;;;;;6.15;3.72;;;;;;;21.99;67.75;101933.31;4915432;29;20055;-80
2021/08/12 08:54:41;;;;;;;8.48;4.18;;;;;;;21.89;68.92;101938.16;4883362;29;20040;-78
2021/08/12 08:57:07;;;;;;;7.63;3.70;;;;;;;21.83;67.72;101930.91;4869190;29;20051;-82
2021/08/12 08:59:34;;;;;;;6.38;3.75;;;;;;;21.73;69.90;101932.03;4888545;29;20123;-81
2021/08/12 09:02:05;;;;;;;8.18;4.13;;;;;;;21.51;69.45;101931.25;4879672;29;20023;-83
2021/08/12 09:04:35;;;;;;;4.68;3.60;;;;;;;21.79;70.95;101938.47;4901823;29;20040;-82
2021/08/12 09:07:09;;;;;;;6.50;3.78;;;;;;;22.06;68.47;101925.34;4899963;29;20062;-82
2021/08/12 09:09:35;;;;;;;5.07;3.28;;;;;;;22.35;64.98;101935.03;4900359;29;20044;-83
2021/08/12 09:12:02;;;;;;;4.32;3.88;;;;;;;22.65;66.28;101934.78;4912065;29;20036;-83
2021/08/12 09:14:36;;;;;;;5.18;3.80;;;;;;;22.93;65.09;101935.53;4866628;29;20041;-84
2021/08/12 09:17:21;;;;;;;6.45;3.90;;;;;;;23.15;61.87;101918.53;4874096;29;20597;-81
2021/08/12 09:19:56;;;;;;;6.30;3.65;;;;;;;22.98;62.43;101928.75;4906596;29;20400;-83
2021/08/12 09:22:22;;;;;;;8.10;3.72;;;;;;;22.76;61.07;101918.19;4909971;29;20689;-84
2021/08/12 09:24:50;;;;;;;4.72;3.80;;;;;;;22.39;64.96;101917.56;4893955;29;20036;-86
2021/08/12 09:27:20;;;;;;;5.28;3.90;;;;;;;22.31;64.13;101915.06;4884244;29;20430;-83
2021/08/12 09:29:46;;;;;;;4.47;3.67;;;;;;;22.57;64.42;101913.56;4884458;29;20048;-84
2021/08/12 09:32:11;;;;;;;4.15;3.75;;;;;;;22.86;61.73;101917.81;4880292;29;20035;-81
2021/08/12 09:34:47;;;;;;;5.90;3.63;;;;;;;23.29;61.68;101928.28;4904219;29;20442;-82
2021/08/12 09:37:13;;;;;;;8.32;4.00;;;;;;;23.45;60.34;101924.38;4904014;29;20032;-82
2021/08/12 09:39:41;;;;;;;4.80;4.20;;;;;;;23.54;60.01;101928.50;4900797;29;20043;-84
2021/08/12 09:42:09;;;;;;;4.32;3.78;;;;;;;23.61;62.51;101929.34;4885053;29;20039;-82
2021/08/12 09:44:37;;;;;;;6.50;3.70;;;;;;;23.74;58.63;101920.50;4885772;29;20518;-83
2021/08/12 09:47:23;;;;;;;6.35;3.92;;;;;;;23.75;60.71;101915.97;4869789;29;20591;-81
2021/08/12 09:49:54;;;;;;;6.00;4.00;;;;;;;23.90;58.94;101924.66;4877490;29;20048;-82
2021/08/12 09:52:37;;;;;;;5.07;3.65;;;;;;;23.85;59.48;101916.44;4893218;29;20068;-83
2021/08/12 09:55:23;;;;;;;4.32;3.90;;;;;;;23.89;58.75;101918.47;4865029;29;20044;-82
2021/08/12 09:57:51;;;;;;;4.38;3.60;;;;;;;24.12;58.50;101919.91;4865004;29;20039;-85
2021/08/12 10:00:38;;;;;;;4.78;4.25;;;;;;;24.26;59.73;101920.69;4851646;29;20104;-82
2021/08/12 10:03:24;;;;;;;5.38;4.38;;;;;;;24.42;58.93;101917.56;4873291;29;20164;-81
2021/08/12 10:05:51;;;;;;;4.20;3.80;;;;;;;24.50;57.35;101919.19;4917734;29;20054;-82
2021/08/12 10:08:26;;;;;;;6.72;4.43;;;;;;;24.62;57.53;101916.69;4917854;29;20036;-82
2021/08/12 10:10:53;;;;;;;4.82;4.30;;;;;;;24.73;57.04;101909.84;4885901;29;20048;-81
2021/08/12 10:13:19;;;;;;;7.35;4.70;;;;;;;24.86;59.05;101918.69;4902068;29;20080;-83
2021/08/12 10:15:49;;;;;;;4.78;4.10;;;;;;;24.98;57.22;101901.91;4886440;29;20134;-83
2021/08/12 10:18:18;;;;;;;6.13;4.10;;;;;;;25.08;58.54;101907.63;4901954;29;20053;-81
2021/08/12 10:20:44;;;;;;;6.97;4.13;;;;;;;25.23;58.23;101902.81;4906690;29;20518;-81
2021/08/12 10:23:10;;;;;;;4.15;3.70;;;;;;;25.02;57.86;101895.09;4895859;29;20577;-81
2021/08/12 10:25:36;;;;;;;7.18;4.38;;;;;;;24.78;58.73;101915.41;4901804;29;20186;-81
2021/08/12 10:28:08;;;;;;;5.20;3.90;;;;;;;24.50;56.85;101903.09;4934452;29;20036;-81
2021/08/12 10:30:35;;;;;;;4.28;3.88;;;;;;;24.64;58.44;101906.63;4899616;29;20529;-82
2021/08/12 10:33:04;;;;;;;4.53;4.03;;;;;;;25.15;57.87;101904.94;4889649;29;20137;-81
2021/08/12 10:35:33;;;;;;;6.65;4.05;;;;;;;25.08;56.55;101901.44;4896239;29;20040;-81
2021/08/12 10:38:00;;;;;;;7.15;4.15;;;;;;;24.85;55.91;101908.97;4872095;29;20043;-83
2021/08/12 10:40:29;;;;;;;5.22;3.88;;;;;;;24.63;56.53;101905.75;4890847;29;20126;-82
2021/08/12 10:42:56;;;;;;;5.88;4.47;;;;;;;25.06;55.04;101896.28;4883591;29;20213;-82
2021/08/12 10:45:24;;;;;;;6.53;4.25;;;;;;;25.11;57.91;101901.00;4899316;29;20530;-82
2021/08/12 10:47:54;;;;;;;4.60;4.20;;;;;;;25.00;57.38;101899.84;4901560;29;20035;-82
2021/08/12 10:50:31;;;;;;;4.60;4.03;;;;;;;24.81;57.34;101896.22;4884210;29;20050;-82
2021/08/12 10:53:17;;;;;;;5.88;4.35;;;;;;;24.74;58.96;101892.75;4897989;29;20067;-81
2021/08/12 10:55:44;;;;;;;5.75;4.30;;;;;;;25.30;57.96;101891.19;4897969;29;20168;-81
2021/08/12 10:58:19;;;;;;;6.15;4.53;;;;;;;25.60;59.58;101896.78;4903684;29;20529;-83
2021/08/12 11:00:46;;;;;;;5.97;4.40;;;;;;;25.92;55.02;101891.34;4883798;29;20069;-83
2021/08/12 11:03:11;;;;;;;10.40;4.65;;;;;;;26.02;54.44;101894.38;4903450;29;20506;-82
2021/08/12 11:06:03;;;;;;;5.38;4.40;;;;;;;25.94;49.59;101892.81;4886188;29;20054;-83
2021/08/12 11:08:54;;;;;;;5.35;4.47;;;;;;;26.05;51.50;101893.09;4885781;29;20035;-82
2021/08/12 11:11:25;;;;;;;4.85;4.32;;;;;;;26.28;50.60;101901.34;4863728;29;20127;-82
2021/08/12 11:13:55;;;;;;;5.22;4.53;;;;;;;26.45;51.29;101885.44;4851760;29;20550;-83
2021/08/12 11:16:26;;;;;;;5.90;4.60;;;;;;;26.28;50.74;101882.53;4916963;29;20509;-82